createdAt,value
2022-12-15T00:00:17.656Z,99995.62
2022-12-15T00:03:03.944Z,99989.50
2022-12-15T00:05:50.463Z,99986.98
2022-12-15T00:08:36.612Z,99980.38
2022-12-15T00:11:23.410Z,99984.34
2022-12-15T00:14:09.768Z,99986.04
2022-12-15T00:16:55.976Z,99987.38
2022-12-15T00:19:42.323Z,99998.66
2022-12-15T00:22:28.658Z,100004.31
2022-12-15T00:25:15.077Z,100012.42
2022-12-15T00:28:01.395Z,100016.61
2022-12-15T00:30:50.006Z,100019.42
2022-12-15T00:33:36.675Z,100013.27
2022-12-15T00:36:23.185Z,100003.98
2022-12-15T00:38:51.069Z,100004.61
2022-12-15T00:41:19.113Z,100004.61
2022-12-15T00:43:46.936Z,99998.98
2022-12-15T00:46:33.755Z,100000.98
2022-12-15T00:49:01.640Z,100008.07
2022-12-15T00:51:47.850Z,100008.07
2022-12-15T00:54:34.371Z,100009.74
2022-12-15T00:57:20.726Z,100022.72
2022-12-15T01:00:07.209Z,100025.73
2022-12-15T01:02:54.128Z,100026.02
2022-12-15T01:05:40.572Z,100029.20
2022-12-15T01:08:26.795Z,100038.80
2022-12-15T01:11:13.356Z,100057.94
2022-12-15T01:13:59.903Z,100058.23
2022-12-15T01:16:46.251Z,100051.43
2022-12-15T01:19:32.673Z,100062.41
2022-12-15T01:22:00.463Z,100071.18
2022-12-15T01:24:28.208Z,100087.30
2022-12-15T01:26:55.943Z,100082.36
2022-12-15T01:29:23.703Z,100086.35
2022-12-15T01:31:51.451Z,100081.84
2022-12-15T01:34:21.206Z,100065.23
2022-12-15T01:36:48.908Z,100067.09
2022-12-15T01:39:17.258Z,100076.70
2022-12-15T01:41:45.001Z,100079.02
2022-12-15T01:44:20.917Z,100084.55
2022-12-15T01:46:50.238Z,100089.88
2022-12-15T01:49:22.050Z,100104.63
2022-12-15T01:51:51.003Z,100097.11
2022-12-15T01:54:24.577Z,100086.02
2022-12-15T01:56:55.445Z,100092.49
2022-12-15T01:59:32.472Z,100098.12
2022-12-15T02:02:00.356Z,100084.16
2022-12-15T02:04:28.165Z,100101.91
2022-12-15T02:06:55.939Z,100100.27
2022-12-15T02:09:23.733Z,100094.62
2022-12-15T02:12:10.854Z,100088.64
2022-12-15T02:14:54.519Z,100088.54
2022-12-15T02:17:30.512Z,100076.18
2022-12-15T02:20:31.280Z,100075.36
2022-12-15T02:23:17.595Z,100078.83
2022-12-15T02:25:57.232Z,100105.28
2022-12-15T02:28:46.567Z,100102.96
2022-12-15T02:31:49.786Z,100106.30
2022-12-15T02:34:24.695Z,100100.64
2022-12-15T02:36:56.515Z,100089.65
2022-12-15T02:39:24.664Z,100093.64
2022-12-15T02:41:54.078Z,100092.30
2022-12-15T02:44:28.179Z,100086.97
2022-12-15T02:47:07.050Z,100070.98
2022-12-15T02:49:49.810Z,100075.49
2022-12-15T02:52:36.636Z,100091.29
2022-12-15T02:55:13.254Z,100084.81
2022-12-15T02:57:57.191Z,100083.44
2022-12-15T03:00:24.956Z,100095.57
2022-12-15T03:02:54.006Z,100106.55
2022-12-15T03:05:22.101Z,100111.33
2022-12-15T03:07:54.208Z,100106.85
2022-12-15T03:10:24.530Z,100107.66
2022-12-15T03:12:52.575Z,100111.33
2022-12-15T03:15:20.506Z,100109.37
2022-12-15T03:17:48.248Z,100111.33
2022-12-15T03:20:16.000Z,100122.31
2022-12-15T03:22:43.684Z,100117.31
2022-12-15T03:25:11.531Z,100120.52
2022-12-15T03:27:39.267Z,100119.05
2022-12-15T03:30:07.709Z,100112.48
2022-12-15T03:32:35.416Z,100111.30
2022-12-15T03:35:03.376Z,100109.62
2022-12-15T03:37:31.046Z,100116.95
2022-12-15T03:39:58.818Z,100122.58
2022-12-15T03:42:45.126Z,100131.38
2022-12-15T03:45:12.810Z,100133.70
2022-12-15T03:47:43.907Z,100134.51
2022-12-15T03:50:12.069Z,100139.64
2022-12-15T03:52:39.788Z,100131.70
2022-12-15T03:55:08.782Z,100137.98
2022-12-15T03:57:36.608Z,100138.27
2022-12-15T04:00:05.970Z,100140.79
2022-12-15T04:02:33.871Z,100130.52
2022-12-15T04:05:01.827Z,100120.42
2022-12-15T04:07:29.565Z,100131.38
2022-12-15T04:09:57.317Z,100131.70
2022-12-15T04:12:25.093Z,100127.41
2022-12-15T04:14:52.867Z,100127.05
2022-12-15T04:17:20.672Z,100123.23
2022-12-15T04:20:06.959Z,100127.52
2022-12-15T04:22:34.710Z,100130.33
2022-12-15T04:25:21.202Z,100134.15
2022-12-15T04:28:07.621Z,100116.69
2022-12-15T04:30:53.959Z,100134.77
2022-12-15T04:33:40.250Z,100142.06
2022-12-15T04:36:28.272Z,100139.25
2022-12-15T04:39:14.457Z,100145.43
2022-12-15T04:42:00.631Z,100153.38
2022-12-15T04:44:50.141Z,100149.39
2022-12-15T04:47:36.916Z,100141.45
2022-12-15T04:50:23.400Z,100142.91
2022-12-15T04:53:09.789Z,100132.26
2022-12-15T04:55:56.992Z,100143.86
2022-12-15T04:58:43.557Z,100152.00
2022-12-15T05:01:30.099Z,100144.05
2022-12-15T05:04:16.730Z,100141.87
2022-12-15T05:07:03.279Z,100157.98
2022-12-15T05:09:49.550Z,100162.76
2022-12-15T05:12:35.993Z,100160.80
2022-12-15T05:15:22.617Z,100158.80
2022-12-15T05:18:08.976Z,100167.27
2022-12-15T05:20:55.233Z,100172.60
2022-12-15T05:23:41.793Z,100167.92
2022-12-15T05:26:28.407Z,100176.03
2022-12-15T05:29:15.007Z,100173.22
2022-12-15T05:31:53.235Z,100179.40
2022-12-15T05:34:24.863Z,100179.60
2022-12-15T05:36:52.812Z,100183.88
2022-12-15T05:39:20.825Z,100183.88
2022-12-15T05:41:48.739Z,100184.50
2022-12-15T05:44:16.579Z,100192.97
2022-12-15T05:46:44.557Z,100194.67
2022-12-15T05:49:14.749Z,100200.95
2022-12-15T05:51:43.202Z,100203.76
2022-12-15T05:54:11.834Z,100207.72
2022-12-15T05:56:39.835Z,100204.05
2022-12-15T05:59:07.578Z,100198.95
2022-12-15T06:01:36.617Z,100207.72
2022-12-15T06:04:04.394Z,100217.88
2022-12-15T06:06:32.226Z,100214.19
2022-12-15T06:09:00.403Z,100204.91
2022-12-15T06:11:28.211Z,100200.10
2022-12-15T06:13:56.364Z,100195.06
2022-12-15T06:16:24.884Z,100200.43
2022-12-15T06:18:57.613Z,100205.23
2022-12-15T06:21:26.998Z,100200.23
2022-12-15T06:23:54.894Z,100200.03
2022-12-15T06:26:23.700Z,100185.91
2022-12-15T06:28:51.513Z,100179.11
2022-12-15T06:31:20.799Z,100195.20
2022-12-15T06:33:48.580Z,100199.48
2022-12-15T06:36:16.700Z,100198.95
2022-12-15T06:38:45.236Z,100204.61
2022-12-15T06:41:19.285Z,100215.89
2022-12-15T06:43:54.117Z,100202.32
2022-12-15T06:46:22.034Z,100202.32
2022-12-15T06:48:49.821Z,100203.76
2022-12-15T06:51:17.879Z,100219.55
2022-12-15T06:53:53.924Z,100217.88
2022-12-15T06:56:34.398Z,100207.42
2022-12-15T06:59:02.896Z,100218.21
2022-12-15T07:01:31.190Z,100212.88
2022-12-15T07:04:01.126Z,100208.83
2022-12-15T07:06:29.438Z,100221.09
2022-12-15T07:09:00.146Z,100220.14
2022-12-15T07:11:27.871Z,100211.02
2022-12-15T07:13:55.746Z,100210.53
2022-12-15T07:16:23.908Z,100216.48
2022-12-15T07:18:51.673Z,100219.42
2022-12-15T07:21:19.364Z,100221.38
2022-12-15T07:23:54.625Z,100227.66
2022-12-15T07:26:23.511Z,100234.82
2022-12-15T07:28:51.546Z,100239.92
2022-12-15T07:31:19.373Z,100230.31
2022-12-15T07:33:49.359Z,100239.11
2022-12-15T07:36:17.239Z,100238.55
2022-12-15T07:38:50.464Z,100246.49
2022-12-15T07:41:19.229Z,100257.28
2022-12-15T07:43:48.247Z,100266.67
2022-12-15T07:46:16.531Z,100266.67
2022-12-15T07:48:44.437Z,100265.66
2022-12-15T07:51:21.221Z,100285.93
2022-12-15T07:53:51.206Z,100286.74
2022-12-15T07:56:19.475Z,100291.78
2022-12-15T07:58:47.485Z,100294.07
2022-12-15T08:01:15.851Z,100291.55
2022-12-15T08:03:43.894Z,100299.70
2022-12-15T08:06:13.194Z,100317.25
2022-12-15T08:08:41.118Z,100307.96
2022-12-15T08:11:09.818Z,100297.83
2022-12-15T08:16:25.843Z,100296.12
2022-12-15T08:18:53.935Z,100299.30
2022-12-15T08:21:21.703Z,100297.41
2022-12-15T08:23:49.401Z,100290.63
2022-12-15T08:26:18.084Z,100301.03
2022-12-15T08:28:46.043Z,100311.01
2022-12-15T08:31:17.363Z,100301.03
2022-12-15T08:33:45.827Z,100304.73
2022-12-15T08:36:14.820Z,100303.55
2022-12-15T08:38:42.980Z,100309.50
2022-12-15T08:41:12.579Z,100308.68
2022-12-15T08:43:47.474Z,100304.20
2022-12-15T08:46:17.163Z,100310.68
2022-12-15T08:48:45.181Z,100305.35
2022-12-15T08:51:13.216Z,100308.45
2022-12-15T08:53:40.885Z,100307.64
2022-12-15T08:56:16.961Z,100301.16
2022-12-15T08:58:45.299Z,100315.06
2022-12-15T09:01:24.393Z,100309.70
2022-12-15T09:03:52.933Z,100308.26
2022-12-15T09:06:22.598Z,100313.59
2022-12-15T09:08:50.777Z,100323.40
2022-12-15T09:11:18.791Z,100322.91
2022-12-15T09:13:46.567Z,100326.21
2022-12-15T09:16:16.318Z,100315.06
2022-12-15T09:18:48.095Z,100313.26
2022-12-15T09:21:16.319Z,100315.48
2022-12-15T09:23:44.117Z,100296.26
2022-12-15T09:26:13.540Z,100284.36
2022-12-15T09:28:41.465Z,100275.89
2022-12-15T09:31:23.277Z,100279.23
2022-12-15T09:33:52.756Z,100284.84
2022-12-15T09:36:20.794Z,100289.66
2022-12-15T09:38:48.584Z,100280.04
2022-12-15T09:41:16.192Z,100284.84
2022-12-15T09:44:02.824Z,100279.23
2022-12-15T09:47:08.154Z,100289.36
2022-12-15T09:49:50.923Z,100293.84
2022-12-15T09:52:29.185Z,100306.30
2022-12-15T09:54:59.042Z,100304.11
2022-12-15T09:57:44.189Z,100306.39
2022-12-15T10:00:34.035Z,100298.97
2022-12-15T10:03:20.916Z,100298.97
2022-12-15T10:06:17.063Z,100288.74
2022-12-15T10:08:57.172Z,100289.88
2022-12-15T10:11:44.132Z,100291.55
2022-12-15T10:14:32.053Z,100305.12
2022-12-15T10:17:11.905Z,100289.36
2022-12-15T10:19:42.604Z,100294.69
2022-12-15T10:22:23.904Z,100298.35
2022-12-15T10:27:59.883Z,100292.40
2022-12-15T10:30:27.761Z,100296.36
2022-12-15T10:33:27.208Z,100285.30
2022-12-15T10:35:55.299Z,100288.12
2022-12-15T10:38:26.596Z,100284.13
2022-12-15T10:40:59.851Z,100283.60
2022-12-15T10:43:38.567Z,100295.21
2022-12-15T10:46:17.165Z,100294.88
2022-12-15T10:48:49.547Z,100283.60
2022-12-15T10:51:31.039Z,100270.85
2022-12-15T10:54:01.810Z,100257.28
2022-12-15T10:56:33.653Z,100249.63
2022-12-15T10:59:22.299Z,100233.25
2022-12-15T11:04:38.075Z,100213.51
2022-12-15T11:07:13.162Z,100211.18
2022-12-15T11:09:41.028Z,100209.71
2022-12-15T11:12:40.755Z,100202.42
2022-12-15T11:15:23.777Z,100198.76
2022-12-15T11:17:59.364Z,100200.10
2022-12-15T11:20:57.517Z,100197.05
2022-12-15T11:23:40.168Z,100194.25
2022-12-15T11:26:38.990Z,100187.48
2022-12-15T11:29:25.025Z,100181.82
2022-12-15T11:31:53.656Z,100181.98
2022-12-15T11:34:26.335Z,100186.59
2022-12-15T11:37:21.220Z,100183.88
2022-12-15T11:39:51.958Z,100181.07
2022-12-15T11:42:53.635Z,100175.12
2022-12-15T11:45:51.169Z,100174.79
2022-12-15T11:48:20.607Z,100172.47
2022-12-15T11:50:51.101Z,100161.71
2022-12-15T11:53:47.427Z,100156.38
2022-12-15T11:56:29.103Z,100153.24
2022-12-15T11:59:15.130Z,100150.43
2022-12-15T12:02:26.987Z,100139.97
2022-12-15T12:05:39.801Z,100125.98
2022-12-15T12:08:10.319Z,100132.26
2022-12-15T12:11:13.534Z,100132.26
2022-12-15T12:13:59.611Z,100130.78
2022-12-15T12:16:36.343Z,100128.16
2022-12-15T12:19:12.119Z,100130.78
2022-12-15T12:21:42.230Z,100124.31
2022-12-15T12:24:18.002Z,100128.59
2022-12-15T12:26:51.148Z,100116.13
2022-12-15T12:29:35.791Z,100117.31
2022-12-15T12:32:18.582Z,100121.79
2022-12-15T12:35:30.488Z,100113.12
2022-12-15T12:37:50.204Z,100118.49
2022-12-15T12:40:20.153Z,100118.78
2022-12-15T12:43:00.438Z,100119.60
2022-12-15T12:45:35.365Z,100123.88
2022-12-15T12:48:08.168Z,100125.06
2022-12-15T12:50:36.020Z,100116.59
2022-12-15T12:53:04.203Z,100121.07
2022-12-15T12:55:42.369Z,100118.59
2022-12-15T12:58:39.555Z,100111.91
2022-12-15T13:01:20.499Z,100102.11
2022-12-15T13:03:49.051Z,100102.11
2022-12-15T13:06:22.466Z,100102.11
2022-12-15T13:08:53.910Z,100094.46
2022-12-15T13:11:49.784Z,100092.46
2022-12-15T13:14:37.120Z,100095.63
2022-12-15T13:17:28.166Z,100104.10
2022-12-15T13:20:01.922Z,100103.22
2022-12-15T13:22:34.097Z,100090.63
2022-12-15T13:25:01.837Z,100087.27
2022-12-15T13:27:39.402Z,100075.16
2022-12-15T13:30:07.053Z,100066.50
2022-12-15T13:32:34.884Z,100057.19
2022-12-15T13:35:14.075Z,100047.90
2022-12-15T13:37:57.596Z,100040.05
2022-12-15T13:40:36.181Z,100046.03
2022-12-15T13:43:06.578Z,100044.17
2022-12-15T13:45:54.953Z,100043.13
2022-12-15T13:48:37.636Z,100048.59
2022-12-15T13:51:27.622Z,100043.58
2022-12-15T13:54:23.755Z,100036.59
2022-12-15T13:57:11.834Z,100041.20
2022-12-15T13:59:53.205Z,100039.20
2022-12-15T14:02:32.039Z,100036.06
2022-12-15T14:05:24.223Z,100023.96
2022-12-15T14:07:55.188Z,100023.41
2022-12-15T14:10:50.906Z,100022.30
2022-12-15T14:13:27.209Z,100030.77
2022-12-15T14:16:04.262Z,100035.67
2022-12-15T14:18:36.233Z,100030.02
2022-12-15T14:21:07.469Z,100033.48
2022-12-15T14:23:52.445Z,100035.24
2022-12-15T14:26:32.831Z,100035.24
2022-12-15T14:29:06.112Z,100029.75
2022-12-15T14:31:34.047Z,100039.04
2022-12-15T14:34:10.240Z,100037.04
2022-12-15T14:36:38.026Z,100034.23
2022-12-15T14:39:07.594Z,100031.09
2022-12-15T14:41:40.031Z,100020.14
2022-12-15T14:44:36.749Z,100017.30
2022-12-15T14:47:08.499Z,100015.66
2022-12-15T14:49:43.999Z,100006.37
2022-12-15T14:52:30.478Z,100010.30
2022-12-15T14:54:59.981Z,100017.95
2022-12-15T14:57:40.436Z,100015.95
2022-12-15T15:00:31.755Z,100025.05
2022-12-15T15:03:04.147Z,100227.59
2022-12-15T15:06:13.462Z,100017.36
2022-12-15T15:08:48.577Z,100009.38
2022-12-15T15:11:26.450Z,100012.23
2022-12-15T15:13:58.358Z,100019.84
2022-12-15T15:16:26.270Z,100011.70
2022-12-15T15:18:55.152Z,100018.18
2022-12-15T15:21:27.508Z,100017.55
2022-12-15T15:24:05.944Z,100016.37
2022-12-15T15:26:33.927Z,100016.37
2022-12-15T15:29:01.698Z,100011.90
2022-12-15T15:31:41.055Z,100010.85
2022-12-15T15:34:09.758Z,100013.99
2022-12-15T15:36:40.878Z,99999.38
2022-12-15T15:39:21.292Z,99989.57
2022-12-15T15:41:49.099Z,99984.56
2022-12-15T15:44:16.953Z,99984.89
2022-12-15T15:46:53.776Z,99986.89
2022-12-15T15:49:22.111Z,99979.89
2022-12-15T15:51:49.863Z,99987.51
2022-12-15T15:54:23.558Z,99984.99
2022-12-15T15:56:51.248Z,100003.37
2022-12-15T15:59:22.011Z,100007.68
2022-12-15T16:01:57.052Z,100012.26
2022-12-15T16:04:25.372Z,100012.59
2022-12-15T16:06:53.561Z,100027.79
2022-12-15T16:09:21.371Z,100038.55
2022-12-15T16:11:49.175Z,100021.22
2022-12-15T16:14:17.862Z,100015.73
2022-12-15T16:16:45.740Z,100023.02
2022-12-15T16:19:13.578Z,100028.12
2022-12-15T16:21:41.564Z,100023.44
2022-12-15T16:24:11.201Z,100015.17
2022-12-15T16:26:40.039Z,100009.02
2022-12-15T16:29:15.732Z,100005.06
2022-12-15T16:31:46.595Z,100001.73
2022-12-15T16:34:15.415Z,100004.87
2022-12-15T16:36:43.335Z,100014.77
2022-12-15T16:39:26.612Z,100008.95
2022-12-15T16:41:55.096Z,100002.58
2022-12-15T16:44:23.577Z,99985.05
2022-12-15T16:46:52.008Z,99987.54
2022-12-15T16:49:19.865Z,99988.36
2022-12-15T16:51:49.167Z,99973.45
2022-12-15T16:54:22.803Z,99977.73
2022-12-15T16:56:50.661Z,99967.62
2022-12-15T16:59:35.616Z,99976.30
2022-12-15T17:02:30.474Z,99985.55
2022-12-15T17:04:58.591Z,99987.73
2022-12-15T17:07:27.686Z,100001.11
2022-12-15T17:09:55.422Z,100006.21
2022-12-15T17:12:23.213Z,99990.78
2022-12-15T17:14:50.963Z,99983.98
2022-12-15T17:17:21.269Z,99977.24
2022-12-15T17:20:28.506Z,99969.91
2022-12-15T17:22:38.563Z,99977.05
2022-12-15T17:25:06.839Z,99981.30
2022-12-15T17:27:34.643Z,99977.66
2022-12-15T17:30:02.641Z,99973.16
2022-12-15T17:32:30.691Z,99977.66
2022-12-15T17:34:58.555Z,99978.78
2022-12-15T17:37:30.570Z,99981.59
2022-12-15T17:40:03.169Z,99969.49
2022-12-15T17:42:30.943Z,99962.73
2022-12-15T17:44:58.799Z,99965.86
2022-12-15T17:47:26.607Z,99952.95
2022-12-15T17:49:54.561Z,99946.77
2022-12-15T17:52:30.027Z,99940.82
2022-12-15T17:54:57.939Z,99934.70
2022-12-15T17:57:25.818Z,99934.38
2022-12-15T17:59:53.637Z,99934.09
2022-12-15T18:02:21.503Z,99930.91
2022-12-15T18:04:49.387Z,99914.46
2022-12-15T18:07:21.784Z,99914.46
2022-12-15T18:09:50.308Z,99921.52
2022-12-15T18:12:23.477Z,99910.28
2022-12-15T18:14:51.514Z,99902.47
2022-12-15T18:17:19.376Z,99898.28
2022-12-15T18:19:47.554Z,99893.18
2022-12-15T18:22:23.587Z,99891.55
2022-12-15T18:24:52.629Z,99881.73
2022-12-15T18:27:27.599Z,99884.55
2022-12-15T18:29:55.552Z,99874.94
2022-12-15T18:32:27.653Z,99877.45
2022-12-15T18:34:55.903Z,99875.27
2022-12-15T18:37:24.275Z,99870.48
2022-12-15T18:39:52.098Z,99872.74
2022-12-15T18:42:21.529Z,99870.78
2022-12-15T18:44:51.053Z,99873.10
2022-12-15T18:47:19.916Z,99873.10
2022-12-15T18:49:47.781Z,99877.88
2022-12-15T18:52:23.254Z,99873.73
2022-12-15T18:54:52.166Z,99880.46
2022-12-15T18:57:31.184Z,99883.27
2022-12-15T19:00:10.762Z,99890.40
2022-12-15T19:02:38.849Z,99887.88
2022-12-15T19:05:07.603Z,99892.46
2022-12-15T19:07:35.567Z,99899.13
2022-12-15T19:10:03.401Z,99897.49
2022-12-15T19:12:31.259Z,99897.27
2022-12-15T19:14:59.089Z,99902.04
2022-12-15T19:17:45.344Z,99901.22
2022-12-15T19:20:36.767Z,99907.66
2022-12-15T19:23:04.840Z,99893.93
2022-12-15T19:25:32.735Z,99909.98
2022-12-15T19:28:00.923Z,99907.99
2022-12-15T19:30:30.325Z,99903.28
2022-12-15T19:32:58.244Z,99901.65
2022-12-15T19:35:28.455Z,99896.32
2022-12-15T19:37:58.110Z,99894.98
2022-12-15T19:40:31.711Z,99897.17
2022-12-15T19:43:00.451Z,99904.23
2022-12-15T19:45:30.125Z,99899.98
2022-12-15T19:47:58.147Z,99899.98
2022-12-15T19:50:37.336Z,99904.79
2022-12-15T19:53:08.315Z,99899.45
2022-12-15T19:55:36.599Z,99894.45
2022-12-15T19:58:29.039Z,99891.09
2022-12-15T20:00:58.342Z,99892.23
2022-12-15T20:03:26.733Z,99885.79
2022-12-15T20:05:55.209Z,99889.75
2022-12-15T20:08:25.221Z,99883.27
2022-12-15T20:10:53.387Z,99886.41
2022-12-15T20:13:21.237Z,99875.46
2022-12-15T20:15:49.195Z,99882.23
2022-12-15T20:18:17.062Z,99872.16
2022-12-15T20:20:46.633Z,99872.98
2022-12-15T20:23:20.449Z,99874.64
2022-12-15T20:25:48.435Z,99871.53
2022-12-15T20:28:24.301Z,99874.64
2022-12-15T20:30:52.463Z,99872.45
2022-12-15T20:33:20.657Z,99870.45
2022-12-15T20:35:49.178Z,99881.41
2022-12-15T20:38:29.105Z,99877.23
2022-12-15T20:40:56.983Z,99869.64
2022-12-15T20:43:25.031Z,99873.07
2022-12-15T20:46:03.905Z,99876.70
2022-12-15T20:48:31.943Z,99880.36
2022-12-15T20:51:04.226Z,99877.23
2022-12-15T20:53:34.529Z,99879.52
2022-12-15T20:56:02.713Z,99878.70
2022-12-15T20:58:33.254Z,99881.51
2022-12-15T21:01:01.556Z,99880.36
2022-12-15T21:03:31.515Z,99873.59
2022-12-15T21:05:59.849Z,99875.78
2022-12-15T21:08:29.364Z,99880.59
2022-12-15T21:11:12.034Z,99877.78
2022-12-15T21:13:39.814Z,99877.55
2022-12-15T21:16:08.146Z,99890.66
2022-12-15T21:21:33.232Z,99896.84
2022-12-15T21:24:01.644Z,99898.21
2022-12-15T21:26:29.768Z,99900.14
2022-12-15T21:28:59.357Z,99906.84
2022-12-15T21:31:27.290Z,99906.84
2022-12-15T21:33:55.172Z,99915.58
2022-12-15T21:36:22.996Z,99911.66
2022-12-15T21:38:52.018Z,99912.96
2022-12-15T21:41:21.316Z,99914.04
2022-12-15T21:43:49.205Z,99912.05
2022-12-15T21:46:17.711Z,99914.34
2022-12-15T21:49:04.487Z,99912.90
2022-12-15T21:51:39.167Z,99915.28
2022-12-15T21:54:07.389Z,99911.20
2022-12-15T21:56:35.396Z,99915.15
2022-12-15T21:59:03.317Z,99919.44
2022-12-15T22:01:31.481Z,99923.26
2022-12-15T22:03:59.867Z,99929.44
2022-12-15T22:06:29.016Z,99925.19
2022-12-15T22:08:59.757Z,99933.82
2022-12-15T22:11:28.902Z,99943.63
2022-12-15T22:13:58.177Z,99942.48
2022-12-15T22:16:26.017Z,99937.16
2022-12-15T22:18:56.304Z,99938.92
2022-12-15T22:21:24.862Z,99951.94
2022-12-15T22:23:52.923Z,99949.74
2022-12-15T22:26:30.071Z,99946.41
2022-12-15T22:28:58.497Z,99951.41
2022-12-15T22:31:26.638Z,99946.02
2022-12-15T22:33:59.160Z,99942.26
2022-12-15T22:36:27.005Z,99938.01
2022-12-15T22:38:55.009Z,99940.82
2022-12-15T22:41:23.409Z,99942.16
2022-12-15T22:43:55.017Z,99943.07
2022-12-15T22:46:24.217Z,99943.50
2022-12-15T22:48:52.460Z,99952.55
2022-12-15T22:51:22.557Z,99950.56
2022-12-15T22:53:50.477Z,99959.12
2022-12-15T22:56:26.765Z,99957.59
2022-12-15T22:58:57.537Z,99958.93
2022-12-15T23:01:29.883Z,99950.20
2022-12-15T23:03:57.731Z,99947.69
2022-12-15T23:06:26.010Z,99950.82
2022-12-15T23:08:55.845Z,99964.06
2022-12-15T23:11:39.012Z,99978.95
2022-12-15T23:14:17.352Z,99977.30
2022-12-15T23:16:46.056Z,99974.49
2022-12-15T23:19:24.715Z,99972.17
2022-12-15T23:21:52.747Z,99973.61
2022-12-15T23:24:20.483Z,99977.60
2022-12-15T23:26:48.232Z,99973.61
2022-12-15T23:29:16.117Z,99980.94
2022-12-15T23:31:44.255Z,99975.61
2022-12-15T23:34:12.208Z,99973.88
2022-12-15T23:36:39.959Z,99972.70
2022-12-15T23:39:07.735Z,99980.31
2022-12-15T23:41:36.352Z,99971.88
2022-12-15T23:44:04.121Z,99960.63
2022-12-15T23:46:32.094Z,99955.01
2022-12-15T23:49:00.811Z,99957.82
2022-12-15T23:51:28.557Z,99969.36
2022-12-15T23:53:56.433Z,99966.55
2022-12-15T23:56:25.182Z,99965.73
2022-12-15T23:58:57.762Z,99973.32
